sensor_id;sensor_type;location;lat;lon;timestamp;P1;durP1;ratioP1;P2;durP2;ratioP2
21424;SDS011;10873;51.132;16.848;2023-05-14T00:02:18;8.82;;;6.55;;
21424;SDS011;10873;51.132;16.848;2023-05-14T00:04:44;8.57;;;5.97;;
21424;SDS011;10873;51.132;16.848;2023-05-14T00:07:10;11.05;;;6.45;;
21424;SDS011;10873;51.132;16.848;2023-05-14T00:09:37;7.78;;;6.18;;
21424;SDS011;10873;51.132;16.848;2023-05-14T00:12:03;8.93;;;6.78;;
21424;SDS011;10873;51.132;16.848;2023-05-14T00:14:29;8.50;;;6.28;;
21424;SDS011;10873;51.132;16.848;2023-05-14T00:16:56;8.65;;;6.82;;
21424;SDS011;10873;51.132;16.848;2023-05-14T00:19:23;8.20;;;6.45;;
21424;SDS011;10873;51.132;16.848;2023-05-14T00:21:50;8.05;;;6.43;;
21424;SDS011;10873;51.132;16.848;2023-05-14T00:24:15;9.10;;;6.30;;
21424;SDS011;10873;51.132;16.848;2023-05-14T00:26:43;8.43;;;6.38;;
21424;SDS011;10873;51.132;16.848;2023-05-14T00:29:11;9.85;;;6.68;;
21424;SDS011;10873;51.132;16.848;2023-05-14T00:31:55;10.43;;;6.57;;
21424;SDS011;10873;51.132;16.848;2023-05-14T00:34:43;9.20;;;6.78;;
21424;SDS011;10873;51.132;16.848;2023-05-14T00:37:12;8.38;;;6.80;;
21424;SDS011;10873;51.132;16.848;2023-05-14T00:39:40;9.45;;;6.63;;
21424;SDS011;10873;51.132;16.848;2023-05-14T00:42:17;8.32;;;6.47;;
21424;SDS011;10873;51.132;16.848;2023-05-14T00:44:49;14.30;;;7.20;;
21424;SDS011;10873;51.132;16.848;2023-05-14T00:47:22;7.63;;;6.38;;
21424;SDS011;10873;51.132;16.848;2023-05-14T00:49:50;10.00;;;6.88;;
21424;SDS011;10873;51.132;16.848;2023-05-14T00:52:17;9.18;;;6.50;;
21424;SDS011;10873;51.132;16.848;2023-05-14T00:54:43;8.73;;;6.35;;
21424;SDS011;10873;51.132;16.848;2023-05-14T00:57:12;8.90;;;6.57;;
21424;SDS011;10873;51.132;16.848;2023-05-14T00:59:40;11.27;;;6.47;;
21424;SDS011;10873;51.132;16.848;2023-05-14T01:02:07;9.65;;;6.47;;
21424;SDS011;10873;51.132;16.848;2023-05-14T01:04:36;12.27;;;6.90;;
21424;SDS011;10873;51.132;16.848;2023-05-14T01:07:13;8.43;;;6.60;;
21424;SDS011;10873;51.132;16.848;2023-05-14T01:09:49;8.10;;;6.63;;
21424;SDS011;10873;51.132;16.848;2023-05-14T01:12:23;8.38;;;6.07;;
21424;SDS011;10873;51.132;16.848;2023-05-14T01:14:58;7.97;;;6.70;;
21424;SDS011;10873;51.132;16.848;2023-05-14T01:17:38;8.15;;;6.72;;
21424;SDS011;10873;51.132;16.848;2023-05-14T01:20:09;7.75;;;6.20;;
21424;SDS011;10873;51.132;16.848;2023-05-14T01:22:38;7.47;;;6.35;;
21424;SDS011;10873;51.132;16.848;2023-05-14T01:25:12;11.32;;;6.50;;
21424;SDS011;10873;51.132;16.848;2023-05-14T01:27:44;9.77;;;6.60;;
21424;SDS011;10873;51.132;16.848;2023-05-14T01:30:20;9.95;;;6.63;;
21424;SDS011;10873;51.132;16.848;2023-05-14T01:32:57;10.60;;;6.57;;
21424;SDS011;10873;51.132;16.848;2023-05-14T01:35:30;8.05;;;6.53;;
21424;SDS011;10873;51.132;16.848;2023-05-14T01:38:04;9.40;;;6.30;;
21424;SDS011;10873;51.132;16.848;2023-05-14T01:40:46;8.55;;;6.40;;
21424;SDS011;10873;51.132;16.848;2023-05-14T01:43:18;9.82;;;6.38;;
21424;SDS011;10873;51.132;16.848;2023-05-14T01:45:50;8.73;;;6.45;;
21424;SDS011;10873;51.132;16.848;2023-05-14T01:48:19;8.80;;;6.30;;
21424;SDS011;10873;51.132;16.848;2023-05-14T01:50:47;9.98;;;6.60;;
21424;SDS011;10873;51.132;16.848;2023-05-14T01:53:22;7.82;;;6.07;;
21424;SDS011;10873;51.132;16.848;2023-05-14T01:55:48;9.35;;;6.70;;
21424;SDS011;10873;51.132;16.848;2023-05-14T01:58:18;8.23;;;6.10;;
21424;SDS011;10873;51.132;16.848;2023-05-14T02:00:45;8.50;;;6.20;;
21424;SDS011;10873;51.132;16.848;2023-05-14T02:03:11;8.75;;;6.65;;
21424;SDS011;10873;51.132;16.848;2023-05-14T02:05:40;9.00;;;6.53;;
21424;SDS011;10873;51.132;16.848;2023-05-14T02:08:10;9.00;;;6.68;;
21424;SDS011;10873;51.132;16.848;2023-05-14T02:10:38;8.07;;;6.15;;
21424;SDS011;10873;51.132;16.848;2023-05-14T02:13:10;11.38;;;6.38;;
21424;SDS011;10873;51.132;16.848;2023-05-14T02:15:41;8.75;;;6.60;;
21424;SDS011;10873;51.132;16.848;2023-05-14T02:18:26;9.07;;;6.38;;
21424;SDS011;10873;51.132;16.848;2023-05-14T02:20:52;7.88;;;5.97;;
21424;SDS011;10873;51.132;16.848;2023-05-14T02:23:22;8.15;;;5.97;;
21424;SDS011;10873;51.132;16.848;2023-05-14T02:25:52;9.25;;;6.57;;
21424;SDS011;10873;51.132;16.848;2023-05-14T02:28:22;7.90;;;5.93;;
21424;SDS011;10873;51.132;16.848;2023-05-14T02:30:48;9.27;;;5.97;;
21424;SDS011;10873;51.132;16.848;2023-05-14T02:33:17;8.82;;;6.47;;
21424;SDS011;10873;51.132;16.848;2023-05-14T02:35:46;8.07;;;6.10;;
21424;SDS011;10873;51.132;16.848;2023-05-14T02:38:13;8.82;;;6.10;;
21424;SDS011;10873;51.132;16.848;2023-05-14T02:40:44;7.68;;;5.75;;
21424;SDS011;10873;51.132;16.848;2023-05-14T02:43:12;8.73;;;5.97;;
21424;SDS011;10873;51.132;16.848;2023-05-14T02:45:38;9.35;;;6.53;;
21424;SDS011;10873;51.132;16.848;2023-05-14T02:48:07;7.13;;;5.75;;
21424;SDS011;10873;51.132;16.848;2023-05-14T02:50:33;10.00;;;5.82;;
21424;SDS011;10873;51.132;16.848;2023-05-14T02:53:02;7.72;;;5.95;;
21424;SDS011;10873;51.132;16.848;2023-05-14T02:55:32;6.40;;;5.43;;
21424;SDS011;10873;51.132;16.848;2023-05-14T02:58:04;8.13;;;6.13;;
21424;SDS011;10873;51.132;16.848;2023-05-14T03:00:37;9.32;;;6.10;;
21424;SDS011;10873;51.132;16.848;2023-05-14T03:03:09;6.50;;;5.72;;
21424;SDS011;10873;51.132;16.848;2023-05-14T03:05:39;6.97;;;5.65;;
21424;SDS011;10873;51.132;16.848;2023-05-14T03:08:08;7.47;;;5.80;;
21424;SDS011;10873;51.132;16.848;2023-05-14T03:10:42;8.52;;;5.97;;
21424;SDS011;10873;51.132;16.848;2023-05-14T03:13:08;8.65;;;5.63;;
21424;SDS011;10873;51.132;16.848;2023-05-14T03:15:46;10.38;;;5.97;;
21424;SDS011;10873;51.132;16.848;2023-05-14T03:18:18;8.27;;;5.57;;
21424;SDS011;10873;51.132;16.848;2023-05-14T03:20:49;7.97;;;5.60;;
21424;SDS011;10873;51.132;16.848;2023-05-14T03:23:20;8.00;;;5.80;;
21424;SDS011;10873;51.132;16.848;2023-05-14T03:25:53;8.30;;;5.95;;
21424;SDS011;10873;51.132;16.848;2023-05-14T03:28:22;6.70;;;5.50;;
21424;SDS011;10873;51.132;16.848;2023-05-14T03:30:52;6.72;;;5.45;;
21424;SDS011;10873;51.132;16.848;2023-05-14T03:33:19;7.32;;;5.70;;
21424;SDS011;10873;51.132;16.848;2023-05-14T03:35:49;7.82;;;5.53;;
21424;SDS011;10873;51.132;16.848;2023-05-14T03:38:16;6.68;;;5.38;;
21424;SDS011;10873;51.132;16.848;2023-05-14T03:40:45;5.60;;;4.90;;
21424;SDS011;10873;51.132;16.848;2023-05-14T03:43:13;6.85;;;5.60;;
21424;SDS011;10873;51.132;16.848;2023-05-14T03:45:39;7.40;;;5.43;;
21424;SDS011;10873;51.132;16.848;2023-05-14T03:48:07;6.50;;;5.47;;
21424;SDS011;10873;51.132;16.848;2023-05-14T03:50:33;7.13;;;5.55;;
21424;SDS011;10873;51.132;16.848;2023-05-14T03:53:00;6.93;;;5.43;;
21424;SDS011;10873;51.132;16.848;2023-05-14T03:55:27;7.97;;;5.53;;
21424;SDS011;10873;51.132;16.848;2023-05-14T03:57:54;7.50;;;5.50;;
21424;SDS011;10873;51.132;16.848;2023-05-14T04:00:22;6.47;;;5.50;;
21424;SDS011;10873;51.132;16.848;2023-05-14T04:02:57;7.53;;;5.53;;
21424;SDS011;10873;51.132;16.848;2023-05-14T04:05:27;6.53;;;5.35;;
21424;SDS011;10873;51.132;16.848;2023-05-14T04:07:57;7.63;;;6.03;;
21424;SDS011;10873;51.132;16.848;2023-05-14T04:10:26;8.18;;;5.78;;
21424;SDS011;10873;51.132;16.848;2023-05-14T04:12:53;8.80;;;5.43;;
21424;SDS011;10873;51.132;16.848;2023-05-14T04:15:20;7.05;;;5.47;;
21424;SDS011;10873;51.132;16.848;2023-05-14T04:17:46;7.93;;;5.93;;
21424;SDS011;10873;51.132;16.848;2023-05-14T04:20:15;7.20;;;5.60;;
21424;SDS011;10873;51.132;16.848;2023-05-14T04:22:43;8.63;;;6.20;;
21424;SDS011;10873;51.132;16.848;2023-05-14T04:25:11;6.88;;;5.70;;
21424;SDS011;10873;51.132;16.848;2023-05-14T04:27:39;9.43;;;5.65;;
21424;SDS011;10873;51.132;16.848;2023-05-14T04:30:07;9.20;;;5.93;;
21424;SDS011;10873;51.132;16.848;2023-05-14T04:32:37;14.25;;;6.60;;
21424;SDS011;10873;51.132;16.848;2023-05-14T04:35:03;8.25;;;6.47;;
21424;SDS011;10873;51.132;16.848;2023-05-14T04:37:30;9.55;;;6.22;;
21424;SDS011;10873;51.132;16.848;2023-05-14T04:39:58;10.85;;;6.88;;
21424;SDS011;10873;51.132;16.848;2023-05-14T04:42:27;9.52;;;6.63;;
21424;SDS011;10873;51.132;16.848;2023-05-14T04:44:53;10.73;;;7.10;;
21424;SDS011;10873;51.132;16.848;2023-05-14T04:47:20;12.20;;;7.45;;
21424;SDS011;10873;51.132;16.848;2023-05-14T04:49:46;11.90;;;7.07;;
21424;SDS011;10873;51.132;16.848;2023-05-14T04:52:13;11.35;;;7.38;;
21424;SDS011;10873;51.132;16.848;2023-05-14T04:54:43;10.18;;;7.05;;
21424;SDS011;10873;51.132;16.848;2023-05-14T04:57:11;13.90;;;7.18;;
21424;SDS011;10873;51.132;16.848;2023-05-14T04:59:43;10.25;;;6.53;;
21424;SDS011;10873;51.132;16.848;2023-05-14T05:02:13;13.70;;;7.05;;
21424;SDS011;10873;51.132;16.848;2023-05-14T05:04:41;10.27;;;6.70;;
21424;SDS011;10873;51.132;16.848;2023-05-14T05:07:08;14.07;;;6.40;;
21424;SDS011;10873;51.132;16.848;2023-05-14T05:09:34;9.20;;;6.50;;
21424;SDS011;10873;51.132;16.848;2023-05-14T05:12:00;18.48;;;7.10;;
21424;SDS011;10873;51.132;16.848;2023-05-14T05:14:28;14.48;;;6.32;;
21424;SDS011;10873;51.132;16.848;2023-05-14T05:16:54;13.70;;;6.75;;
21424;SDS011;10873;51.132;16.848;2023-05-14T05:22:25;13.80;;;6.53;;
21424;SDS011;10873;51.132;16.848;2023-05-14T05:24:51;10.50;;;6.18;;
21424;SDS011;10873;51.132;16.848;2023-05-14T05:27:18;15.60;;;6.57;;
21424;SDS011;10873;51.132;16.848;2023-05-14T05:29:50;14.85;;;6.50;;
21424;SDS011;10873;51.132;16.848;2023-05-14T05:32:17;13.60;;;6.78;;
21424;SDS011;10873;51.132;16.848;2023-05-14T05:34:43;17.58;;;6.25;;
21424;SDS011;10873;51.132;16.848;2023-05-14T05:37:12;10.27;;;6.60;;
21424;SDS011;10873;51.132;16.848;2023-05-14T05:39:39;15.55;;;6.05;;
21424;SDS011;10873;51.132;16.848;2023-05-14T05:42:11;17.70;;;6.72;;
21424;SDS011;10873;51.132;16.848;2023-05-14T05:44:40;11.43;;;7.55;;
21424;SDS011;10873;51.132;16.848;2023-05-14T05:47:14;16.40;;;8.05;;
21424;SDS011;10873;51.132;16.848;2023-05-14T05:49:42;17.77;;;9.98;;
21424;SDS011;10873;51.132;16.848;2023-05-14T05:52:08;23.00;;;12.40;;
21424;SDS011;10873;51.132;16.848;2023-05-14T05:54:34;28.10;;;14.25;;
21424;SDS011;10873;51.132;16.848;2023-05-14T05:57:01;25.17;;;16.73;;
21424;SDS011;10873;51.132;16.848;2023-05-14T05:59:27;33.75;;;18.90;;
21424;SDS011;10873;51.132;16.848;2023-05-14T06:01:53;36.92;;;22.13;;
21424;SDS011;10873;51.132;16.848;2023-05-14T06:04:21;32.65;;;22.75;;
21424;SDS011;10873;51.132;16.848;2023-05-14T06:06:47;33.80;;;23.67;;
21424;SDS011;10873;51.132;16.848;2023-05-14T06:09:13;37.50;;;23.17;;
21424;SDS011;10873;51.132;16.848;2023-05-14T06:11:40;33.60;;;21.50;;
21424;SDS011;10873;51.132;16.848;2023-05-14T06:14:06;33.20;;;20.98;;
21424;SDS011;10873;51.132;16.848;2023-05-14T06:16:35;32.20;;;20.42;;
21424;SDS011;10873;51.132;16.848;2023-05-14T06:19:04;25.58;;;18.30;;
21424;SDS011;10873;51.132;16.848;2023-05-14T06:21:32;26.27;;;17.27;;
21424;SDS011;10873;51.132;16.848;2023-05-14T06:23:58;22.70;;;16.38;;
21424;SDS011;10873;51.132;16.848;2023-05-14T06:26:24;21.80;;;15.40;;
21424;SDS011;10873;51.132;16.848;2023-05-14T06:28:50;23.73;;;14.02;;
21424;SDS011;10873;51.132;16.848;2023-05-14T06:31:19;20.00;;;13.82;;
21424;SDS011;10873;51.132;16.848;2023-05-14T06:33:45;18.15;;;13.00;;
21424;SDS011;10873;51.132;16.848;2023-05-14T06:36:11;19.13;;;12.57;;
21424;SDS011;10873;51.132;16.848;2023-05-14T06:38:48;18.90;;;11.80;;
21424;SDS011;10873;51.132;16.848;2023-05-14T06:41:15;19.17;;;11.35;;
21424;SDS011;10873;51.132;16.848;2023-05-14T06:43:41;15.73;;;10.35;;
21424;SDS011;10873;51.132;16.848;2023-05-14T06:46:07;17.83;;;10.77;;
21424;SDS011;10873;51.132;16.848;2023-05-14T06:48:33;15.10;;;10.23;;
21424;SDS011;10873;51.132;16.848;2023-05-14T06:51:00;14.82;;;10.48;;
21424;SDS011;10873;51.132;16.848;2023-05-14T06:53:27;17.15;;;10.35;;
21424;SDS011;10873;51.132;16.848;2023-05-14T06:55:55;17.08;;;10.45;;
21424;SDS011;10873;51.132;16.848;2023-05-14T06:58:21;14.27;;;10.40;;
21424;SDS011;10873;51.132;16.848;2023-05-14T07:00:48;15.52;;;9.90;;
21424;SDS011;10873;51.132;16.848;2023-05-14T07:03:14;15.48;;;10.00;;
21424;SDS011;10873;51.132;16.848;2023-05-14T07:05:40;13.05;;;9.48;;
21424;SDS011;10873;51.132;16.848;2023-05-14T07:08:06;16.00;;;9.30;;
21424;SDS011;10873;51.132;16.848;2023-05-14T07:10:32;16.85;;;9.93;;
21424;SDS011;10873;51.132;16.848;2023-05-14T07:13:00;12.43;;;8.80;;
21424;SDS011;10873;51.132;16.848;2023-05-14T07:15:27;14.77;;;9.40;;
21424;SDS011;10873;51.132;16.848;2023-05-14T07:17:54;11.60;;;8.77;;
21424;SDS011;10873;51.132;16.848;2023-05-14T07:20:41;12.95;;;8.15;;
21424;SDS011;10873;51.132;16.848;2023-05-14T07:23:57;12.30;;;7.75;;
21424;SDS011;10873;51.132;16.848;2023-05-14T07:26:38;10.43;;;7.40;;
21424;SDS011;10873;51.132;16.848;2023-05-14T07:33:34;9.77;;;6.95;;
21424;SDS011;10873;51.132;16.848;2023-05-14T07:36:01;9.38;;;6.45;;
21424;SDS011;10873;51.132;16.848;2023-05-14T07:44:49;11.80;;;6.30;;
21424;SDS011;10873;51.132;16.848;2023-05-14T07:47:17;9.35;;;6.40;;
21424;SDS011;10873;51.132;16.848;2023-05-14T07:49:43;8.65;;;6.35;;
21424;SDS011;10873;51.132;16.848;2023-05-14T07:52:09;10.77;;;6.32;;
21424;SDS011;10873;51.132;16.848;2023-05-14T07:54:35;9.63;;;6.40;;
21424;SDS011;10873;51.132;16.848;2023-05-14T07:57:01;8.38;;;5.70;;
21424;SDS011;10873;51.132;16.848;2023-05-14T07:59:27;7.97;;;5.78;;
21424;SDS011;10873;51.132;16.848;2023-05-14T08:01:53;8.30;;;5.70;;
21424;SDS011;10873;51.132;16.848;2023-05-14T08:04:21;6.70;;;5.45;;
21424;SDS011;10873;51.132;16.848;2023-05-14T08:06:48;9.20;;;5.57;;
21424;SDS011;10873;51.132;16.848;2023-05-14T08:09:13;11.93;;;5.80;;
21424;SDS011;10873;51.132;16.848;2023-05-14T08:11:40;7.18;;;5.70;;
21424;SDS011;10873;51.132;16.848;2023-05-14T08:14:06;8.65;;;5.10;;
21424;SDS011;10873;51.132;16.848;2023-05-14T08:16:32;7.80;;;5.43;;
21424;SDS011;10873;51.132;16.848;2023-05-14T08:18:58;7.72;;;5.28;;
21424;SDS011;10873;51.132;16.848;2023-05-14T08:21:26;7.63;;;5.28;;
21424;SDS011;10873;51.132;16.848;2023-05-14T08:23:52;6.47;;;5.00;;
21424;SDS011;10873;51.132;16.848;2023-05-14T08:26:18;8.05;;;4.90;;
21424;SDS011;10873;51.132;16.848;2023-05-14T08:28:45;7.68;;;5.15;;
21424;SDS011;10873;51.132;16.848;2023-05-14T08:31:11;8.43;;;5.45;;
21424;SDS011;10873;51.132;16.848;2023-05-14T08:33:38;9.50;;;4.90;;
21424;SDS011;10873;51.132;16.848;2023-05-14T08:36:05;9.88;;;4.47;;
21424;SDS011;10873;51.132;16.848;2023-05-14T08:38:32;7.60;;;4.20;;
21424;SDS011;10873;51.132;16.848;2023-05-14T08:40:59;9.68;;;4.50;;
21424;SDS011;10873;51.132;16.848;2023-05-14T08:43:25;7.72;;;4.65;;
21424;SDS011;10873;51.132;16.848;2023-05-14T08:46:07;9.50;;;4.80;;
21424;SDS011;10873;51.132;16.848;2023-05-14T08:48:37;6.50;;;4.50;;
21424;SDS011;10873;51.132;16.848;2023-05-14T08:51:06;6.65;;;4.10;;
21424;SDS011;10873;51.132;16.848;2023-05-14T08:53:34;10.02;;;4.30;;
21424;SDS011;10873;51.132;16.848;2023-05-14T08:56:02;7.35;;;3.90;;
21424;SDS011;10873;51.132;16.848;2023-05-14T08:58:31;4.55;;;3.45;;
21424;SDS011;10873;51.132;16.848;2023-05-14T09:00:57;6.53;;;3.63;;
21424;SDS011;10873;51.132;16.848;2023-05-14T09:03:23;4.55;;;3.50;;
21424;SDS011;10873;51.132;16.848;2023-05-14T09:05:50;5.45;;;3.70;;
21424;SDS011;10873;51.132;16.848;2023-05-14T09:08:18;6.40;;;3.22;;
21424;SDS011;10873;51.132;16.848;2023-05-14T09:10:45;4.05;;;3.40;;
21424;SDS011;10873;51.132;16.848;2023-05-14T09:13:11;8.10;;;3.25;;
21424;SDS011;10873;51.132;16.848;2023-05-14T09:15:38;6.25;;;3.60;;
21424;SDS011;10873;51.132;16.848;2023-05-14T09:18:05;4.78;;;3.35;;
21424;SDS011;10873;51.132;16.848;2023-05-14T09:20:32;5.93;;;3.38;;
21424;SDS011;10873;51.132;16.848;2023-05-14T09:22:58;4.38;;;3.10;;
21424;SDS011;10873;51.132;16.848;2023-05-14T09:25:25;4.10;;;2.88;;
21424;SDS011;10873;51.132;16.848;2023-05-14T09:27:53;3.22;;;2.40;;
21424;SDS011;10873;51.132;16.848;2023-05-14T09:30:19;4.10;;;2.80;;
21424;SDS011;10873;51.132;16.848;2023-05-14T09:32:45;7.97;;;3.00;;
21424;SDS011;10873;51.132;16.848;2023-05-14T09:35:14;3.40;;;2.72;;
21424;SDS011;10873;51.132;16.848;2023-05-14T09:37:43;4.43;;;2.70;;
21424;SDS011;10873;51.132;16.848;2023-05-14T09:40:09;4.88;;;2.58;;
21424;SDS011;10873;51.132;16.848;2023-05-14T09:42:36;6.45;;;2.30;;
21424;SDS011;10873;51.132;16.848;2023-05-14T09:45:05;3.60;;;2.45;;
21424;SDS011;10873;51.132;16.848;2023-05-14T09:47:32;5.38;;;2.58;;
21424;SDS011;10873;51.132;16.848;2023-05-14T09:49:58;5.90;;;2.30;;
21424;SDS011;10873;51.132;16.848;2023-05-14T09:52:24;3.00;;;2.08;;
21424;SDS011;10873;51.132;16.848;2023-05-14T09:54:50;4.78;;;1.90;;
21424;SDS011;10873;51.132;16.848;2023-05-14T09:57:16;7.78;;;2.15;;
21424;SDS011;10873;51.132;16.848;2023-05-14T09:59:43;2.90;;;2.05;;
21424;SDS011;10873;51.132;16.848;2023-05-14T10:02:21;2.80;;;1.90;;
21424;SDS011;10873;51.132;16.848;2023-05-14T10:04:48;3.35;;;1.83;;
21424;SDS011;10873;51.132;16.848;2023-05-14T10:07:16;2.20;;;2.00;;
21424;SDS011;10873;51.132;16.848;2023-05-14T10:09:46;4.80;;;1.85;;
21424;SDS011;10873;51.132;16.848;2023-05-14T10:12:12;2.22;;;1.63;;
21424;SDS011;10873;51.132;16.848;2023-05-14T10:14:42;4.57;;;2.22;;
21424;SDS011;10873;51.132;16.848;2023-05-14T10:17:19;3.75;;;1.85;;
21424;SDS011;10873;51.132;16.848;2023-05-14T10:19:46;2.80;;;1.92;;
21424;SDS011;10873;51.132;16.848;2023-05-14T10:22:19;3.00;;;2.05;;
21424;SDS011;10873;51.132;16.848;2023-05-14T10:24:48;2.00;;;1.80;;
21424;SDS011;10873;51.132;16.848;2023-05-14T10:27:17;4.45;;;1.92;;
21424;SDS011;10873;51.132;16.848;2023-05-14T10:29:47;4.45;;;2.17;;
21424;SDS011;10873;51.132;16.848;2023-05-14T10:32:18;7.45;;;1.88;;
21424;SDS011;10873;51.132;16.848;2023-05-14T10:34:47;2.28;;;1.67;;
21424;SDS011;10873;51.132;16.848;2023-05-14T10:37:14;3.30;;;2.03;;
21424;SDS011;10873;51.132;16.848;2023-05-14T10:39:45;3.95;;;2.05;;
21424;SDS011;10873;51.132;16.848;2023-05-14T10:42:13;2.67;;;1.80;;
21424;SDS011;10873;51.132;16.848;2023-05-14T10:44:44;1.88;;;1.70;;
21424;SDS011;10873;51.132;16.848;2023-05-14T10:47:13;3.30;;;2.10;;
21424;SDS011;10873;51.132;16.848;2023-05-14T10:49:41;4.70;;;1.83;;
21424;SDS011;10873;51.132;16.848;2023-05-14T10:52:09;5.97;;;2.17;;
21424;SDS011;10873;51.132;16.848;2023-05-14T10:54:36;2.50;;;2.05;;
21424;SDS011;10873;51.132;16.848;2023-05-14T10:57:03;3.85;;;2.15;;
21424;SDS011;10873;51.132;16.848;2023-05-14T10:59:33;3.92;;;2.17;;
21424;SDS011;10873;51.132;16.848;2023-05-14T11:01:59;4.13;;;1.95;;
21424;SDS011;10873;51.132;16.848;2023-05-14T11:04:30;5.53;;;2.30;;
21424;SDS011;10873;51.132;16.848;2023-05-14T11:06:57;2.17;;;1.65;;
21424;SDS011;10873;51.132;16.848;2023-05-14T11:09:25;2.78;;;1.83;;
21424;SDS011;10873;51.132;16.848;2023-05-14T11:11:51;3.90;;;2.33;;
21424;SDS011;10873;51.132;16.848;2023-05-14T11:14:18;26.83;;;2.97;;
21424;SDS011;10873;51.132;16.848;2023-05-14T11:16:44;13.43;;;3.00;;
21424;SDS011;10873;51.132;16.848;2023-05-14T11:19:12;10.38;;;3.08;;
21424;SDS011;10873;51.132;16.848;2023-05-14T11:21:38;9.77;;;2.78;;
21424;SDS011;10873;51.132;16.848;2023-05-14T11:24:06;7.13;;;2.78;;
21424;SDS011;10873;51.132;16.848;2023-05-14T11:26:32;11.57;;;3.30;;
21424;SDS011;10873;51.132;16.848;2023-05-14T11:28:58;8.43;;;2.72;;
21424;SDS011;10873;51.132;16.848;2023-05-14T11:31:24;7.00;;;2.63;;
21424;SDS011;10873;51.132;16.848;2023-05-14T11:33:51;7.88;;;2.35;;
21424;SDS011;10873;51.132;16.848;2023-05-14T11:36:17;7.70;;;2.70;;
21424;SDS011;10873;51.132;16.848;2023-05-14T11:38:47;6.60;;;2.80;;
21424;SDS011;10873;51.132;16.848;2023-05-14T11:41:14;5.05;;;2.90;;
21424;SDS011;10873;51.132;16.848;2023-05-14T11:43:40;5.85;;;2.97;;
21424;SDS011;10873;51.132;16.848;2023-05-14T11:46:06;5.40;;;2.58;;
21424;SDS011;10873;51.132;16.848;2023-05-14T11:48:33;3.92;;;2.88;;
21424;SDS011;10873;51.132;16.848;2023-05-14T11:50:59;4.00;;;2.75;;
21424;SDS011;10873;51.132;16.848;2023-05-14T11:53:25;7.40;;;2.40;;
21424;SDS011;10873;51.132;16.848;2023-05-14T11:55:53;7.35;;;2.92;;
21424;SDS011;10873;51.132;16.848;2023-05-14T11:58:21;5.78;;;2.83;;
21424;SDS011;10873;51.132;16.848;2023-05-14T12:00:48;3.30;;;2.50;;
21424;SDS011;10873;51.132;16.848;2023-05-14T12:03:15;6.65;;;2.78;;
21424;SDS011;10873;51.132;16.848;2023-05-14T12:05:53;4.20;;;2.42;;
21424;SDS011;10873;51.132;16.848;2023-05-14T12:08:20;5.40;;;2.47;;
21424;SDS011;10873;51.132;16.848;2023-05-14T12:10:47;6.35;;;2.42;;
21424;SDS011;10873;51.132;16.848;2023-05-14T12:13:14;5.35;;;2.50;;
21424;SDS011;10873;51.132;16.848;2023-05-14T12:15:44;2.83;;;2.20;;
21424;SDS011;10873;51.132;16.848;2023-05-14T12:18:11;5.38;;;2.60;;
21424;SDS011;10873;51.132;16.848;2023-05-14T12:20:37;3.85;;;2.50;;
21424;SDS011;10873;51.132;16.848;2023-05-14T12:23:03;6.03;;;2.35;;
21424;SDS011;10873;51.132;16.848;2023-05-14T12:25:29;5.32;;;2.40;;
21424;SDS011;10873;51.132;16.848;2023-05-14T12:27:55;5.05;;;3.10;;
21424;SDS011;10873;51.132;16.848;2023-05-14T12:30:21;6.00;;;3.10;;
21424;SDS011;10873;51.132;16.848;2023-05-14T12:32:49;5.25;;;2.90;;
21424;SDS011;10873;51.132;16.848;2023-05-14T12:35:16;5.80;;;2.67;;
21424;SDS011;10873;51.132;16.848;2023-05-14T12:37:43;7.07;;;2.90;;
21424;SDS011;10873;51.132;16.848;2023-05-14T12:40:09;5.93;;;3.63;;
21424;SDS011;10873;51.132;16.848;2023-05-14T12:42:36;7.55;;;3.20;;
21424;SDS011;10873;51.132;16.848;2023-05-14T12:45:02;5.10;;;2.88;;
21424;SDS011;10873;51.132;16.848;2023-05-14T12:47:31;6.55;;;3.38;;
21424;SDS011;10873;51.132;16.848;2023-05-14T12:49:59;5.38;;;2.80;;
21424;SDS011;10873;51.132;16.848;2023-05-14T12:52:25;5.70;;;3.10;;
21424;SDS011;10873;51.132;16.848;2023-05-14T12:54:51;5.72;;;2.75;;
21424;SDS011;10873;51.132;16.848;2023-05-14T12:57:17;6.00;;;3.25;;
21424;SDS011;10873;51.132;16.848;2023-05-14T12:59:43;6.85;;;4.15;;
21424;SDS011;10873;51.132;16.848;2023-05-14T13:02:09;11.23;;;6.93;;
21424;SDS011;10873;51.132;16.848;2023-05-14T13:04:35;14.20;;;7.88;;
21424;SDS011;10873;51.132;16.848;2023-05-14T13:07:04;13.50;;;6.93;;
21424;SDS011;10873;51.132;16.848;2023-05-14T13:09:30;11.57;;;6.00;;
21424;SDS011;10873;51.132;16.848;2023-05-14T13:11:56;12.07;;;5.55;;
21424;SDS011;10873;51.132;16.848;2023-05-14T13:14:23;8.43;;;5.03;;
21424;SDS011;10873;51.132;16.848;2023-05-14T13:16:49;10.88;;;5.13;;
21424;SDS011;10873;51.132;16.848;2023-05-14T13:19:15;8.45;;;4.88;;
21424;SDS011;10873;51.132;16.848;2023-05-14T13:21:41;7.35;;;3.95;;
21424;SDS011;10873;51.132;16.848;2023-05-14T13:24:09;6.47;;;4.00;;
21424;SDS011;10873;51.132;16.848;2023-05-14T13:26:35;7.47;;;3.75;;
21424;SDS011;10873;51.132;16.848;2023-05-14T13:29:01;7.03;;;3.53;;
21424;SDS011;10873;51.132;16.848;2023-05-14T13:31:27;6.80;;;3.42;;
21424;SDS011;10873;51.132;16.848;2023-05-14T13:33:53;5.57;;;3.67;;
21424;SDS011;10873;51.132;16.848;2023-05-14T13:36:19;6.70;;;3.30;;
21424;SDS011;10873;51.132;16.848;2023-05-14T13:38:45;5.55;;;3.30;;
21424;SDS011;10873;51.132;16.848;2023-05-14T13:41:13;7.03;;;2.95;;
21424;SDS011;10873;51.132;16.848;2023-05-14T13:43:39;3.65;;;2.78;;
21424;SDS011;10873;51.132;16.848;2023-05-14T13:46:05;5.28;;;2.80;;
21424;SDS011;10873;51.132;16.848;2023-05-14T13:48:31;4.13;;;2.78;;
21424;SDS011;10873;51.132;16.848;2023-05-14T13:50:57;3.17;;;2.50;;
21424;SDS011;10873;51.132;16.848;2023-05-14T13:53:24;4.65;;;2.92;;
21424;SDS011;10873;51.132;16.848;2023-05-14T13:55:50;5.07;;;2.65;;
21424;SDS011;10873;51.132;16.848;2023-05-14T13:58:26;3.58;;;2.80;;
21424;SDS011;10873;51.132;16.848;2023-05-14T14:00:52;3.20;;;2.40;;
21424;SDS011;10873;51.132;16.848;2023-05-14T14:03:18;3.83;;;2.40;;
21424;SDS011;10873;51.132;16.848;2023-05-14T14:05:45;3.67;;;2.38;;
21424;SDS011;10873;51.132;16.848;2023-05-14T14:08:10;3.38;;;2.55;;
21424;SDS011;10873;51.132;16.848;2023-05-14T14:10:37;2.90;;;2.00;;
21424;SDS011;10873;51.132;16.848;2023-05-14T14:13:06;3.67;;;2.20;;
21424;SDS011;10873;51.132;16.848;2023-05-14T14:15:34;3.83;;;2.28;;
21424;SDS011;10873;51.132;16.848;2023-05-14T14:18:01;4.90;;;2.33;;
21424;SDS011;10873;51.132;16.848;2023-05-14T14:20:27;3.90;;;2.28;;
21424;SDS011;10873;51.132;16.848;2023-05-14T14:22:53;3.90;;;2.45;;
21424;SDS011;10873;51.132;16.848;2023-05-14T14:25:19;2.50;;;2.03;;
21424;SDS011;10873;51.132;16.848;2023-05-14T14:27:45;4.88;;;2.28;;
21424;SDS011;10873;51.132;16.848;2023-05-14T14:30:12;3.90;;;2.22;;
21424;SDS011;10873;51.132;16.848;2023-05-14T14:32:43;4.57;;;2.50;;
21424;SDS011;10873;51.132;16.848;2023-05-14T14:35:09;3.45;;;2.20;;
21424;SDS011;10873;51.132;16.848;2023-05-14T14:37:36;3.67;;;2.25;;
21424;SDS011;10873;51.132;16.848;2023-05-14T14:40:02;6.10;;;2.42;;
21424;SDS011;10873;51.132;16.848;2023-05-14T14:42:31;5.63;;;2.33;;
21424;SDS011;10873;51.132;16.848;2023-05-14T14:44:58;2.78;;;2.38;;
21424;SDS011;10873;51.132;16.848;2023-05-14T14:47:23;5.93;;;2.55;;
21424;SDS011;10873;51.132;16.848;2023-05-14T14:49:51;4.32;;;2.70;;
21424;SDS011;10873;51.132;16.848;2023-05-14T14:52:17;6.82;;;2.25;;